Time;durP1;ratioP1;P1;durP2;ratioP2;P2;SDS_P1;SDS_P2;PMS_P1;PMS_P2;Temp;Humidity;BMP_temperature;BMP_pressure;BME280_temperature;BME280_humidity;BME280_pressure;Samples;Min_cycle;Max_cycle;Signal;HPM_P1;HPM_P2
2023/03/18 00:01:58;;;;;;;14.23;3.38;;;;;;;;;;4994676;28;20511;-74
2023/03/18 00:04:24;;;;;;;14.57;4.43;;;;;;;;;;5013668;28;20046;-74
2023/03/18 00:06:50;;;;;;;16.17;4.22;;;;;;;;;;5013561;28;20064;-73
2023/03/18 00:09:16;;;;;;;15.30;4.78;;;;;;;;;;5013683;28;20038;-73
2023/03/18 00:11:42;;;;;;;14.40;3.83;;;;;;;;;;5013983;28;20088;-74
2023/03/18 00:14:10;;;;;;;14.40;3.63;;;;;;;;;;5013401;28;20018;-73
2023/03/18 00:16:36;;;;;;;20.33;3.88;;;;;;;;;;5013347;28;20080;-73
2023/03/18 00:19:03;;;;;;;20.75;3.72;;;;;;;;;;5004867;28;20034;-74
2023/03/18 00:21:29;;;;;;;15.00;3.70;;;;;;;;;;4993260;28;20019;-74
2023/03/18 00:23:57;;;;;;;13.82;4.07;;;;;;;;;;4993817;28;20056;-74
2023/03/18 00:26:24;;;;;;;14.18;3.80;;;;;;;;;;4993757;28;20014;-74
2023/03/18 00:28:51;;;;;;;14.68;4.25;;;;;;;;;;4992489;28;20037;-74
2023/03/18 00:31:17;;;;;;;19.13;3.95;;;;;;;;;;4993515;28;20032;-74
2023/03/18 00:33:49;;;;;;;25.20;4.07;;;;;;;;;;4993390;28;20027;-75
2023/03/18 00:36:15;;;;;;;15.98;3.70;;;;;;;;;;4993228;28;20037;-75
2023/03/18 00:38:42;;;;;;;15.57;4.32;;;;;;;;;;4993502;28;20425;-75
2023/03/18 00:41:14;;;;;;;13.68;4.85;;;;;;;;;;4992238;28;20069;-74
2023/03/18 00:43:53;;;;;;;18.55;4.50;;;;;;;;;;4993357;28;20117;-74
2023/03/18 00:46:21;;;;;;;15.45;3.75;;;;;;;;;;4993354;28;20022;-75
2023/03/18 00:48:47;;;;;;;16.80;4.10;;;;;;;;;;4993228;28;20026;-74
2023/03/18 00:51:15;;;;;;;18.55;4.53;;;;;;;;;;4992791;28;20537;-74
2023/03/18 00:53:43;;;;;;;11.27;3.67;;;;;;;;;;4991781;28;20041;-73
2023/03/18 00:56:10;;;;;;;15.98;3.70;;;;;;;;;;4993215;28;20022;-75
2023/03/18 00:58:36;;;;;;;14.45;3.97;;;;;;;;;;4993223;28;20030;-75
2023/03/18 01:01:03;;;;;;;19.35;3.85;;;;;;;;;;4992769;28;20114;-74
2023/03/18 01:03:30;;;;;;;14.50;4.10;;;;;;;;;;4992889;28;20069;-74
2023/03/18 01:05:56;;;;;;;11.80;4.28;;;;;;;;;;4992911;28;20039;-75
2023/03/18 01:08:23;;;;;;;13.57;3.55;;;;;;;;;;5005950;28;20030;-74
2023/03/18 01:10:49;;;;;;;13.02;4.20;;;;;;;;;;5012430;28;20382;-75
2023/03/18 01:13:16;;;;;;;14.07;3.67;;;;;;;;;;5012207;28;20026;-75
2023/03/18 01:15:42;;;;;;;18.08;3.42;;;;;;;;;;5012452;28;20493;-75
2023/03/18 01:18:10;;;;;;;17.38;3.40;;;;;;;;;;5012690;28;20049;-75
2023/03/18 01:20:36;;;;;;;13.75;3.78;;;;;;;;;;5012359;28;20025;-75
2023/03/18 01:23:03;;;;;;;15.73;3.22;;;;;;;;;;5010399;28;20592;-75
2023/03/18 01:25:29;;;;;;;17.83;3.42;;;;;;;;;;4994235;28;20117;-75
2023/03/18 01:27:55;;;;;;;12.02;3.47;;;;;;;;;;4992776;28;20024;-75
2023/03/18 01:30:22;;;;;;;9.90;3.85;;;;;;;;;;4992438;28;20065;-77
2023/03/18 01:32:48;;;;;;;18.45;4.70;;;;;;;;;;4992507;28;20052;-75
2023/03/18 01:35:15;;;;;;;13.63;3.42;;;;;;;;;;4992026;28;20502;-77
2023/03/18 01:37:42;;;;;;;15.20;3.75;;;;;;;;;;5007338;28;20383;-75
2023/03/18 01:40:09;;;;;;;16.60;3.50;;;;;;;;;;4992434;28;20080;-75
2023/03/18 01:42:36;;;;;;;15.88;3.30;;;;;;;;;;4991922;28;20046;-74
2023/03/18 01:45:18;;;;;;;17.60;3.83;;;;;;;;;;4992381;28;20553;-75
2023/03/18 01:47:45;;;;;;;21.00;2.97;;;;;;;;;;4992105;28;20105;-75
2023/03/18 01:50:13;;;;;;;22.13;3.58;;;;;;;;;;4992348;28;20121;-74
2023/03/18 01:52:40;;;;;;;13.18;3.42;;;;;;;;;;4992223;28;20026;-75
2023/03/18 01:55:09;;;;;;;15.45;4.50;;;;;;;;;;4992406;28;20042;-75
2023/03/18 01:57:36;;;;;;;20.00;4.25;;;;;;;;;;4991754;28;20073;-74
2023/03/18 02:00:03;;;;;;;16.83;3.10;;;;;;;;;;4990367;28;20046;-74
2023/03/18 02:02:29;;;;;;;16.33;3.90;;;;;;;;;;4991918;28;20070;-73
2023/03/18 02:04:58;;;;;;;15.57;3.83;;;;;;;;;;4991937;28;20100;-74
2023/03/18 02:07:29;;;;;;;16.67;3.70;;;;;;;;;;4990876;28;20109;-74
2023/03/18 02:09:57;;;;;;;14.25;3.42;;;;;;;;;;4992196;28;20050;-74
2023/03/18 02:12:30;;;;;;;14.20;3.60;;;;;;;;;;4990494;28;20480;-74
2023/03/18 02:14:57;;;;;;;13.68;3.33;;;;;;;;;;4991860;28;20093;-74
2023/03/18 02:17:26;;;;;;;16.92;3.65;;;;;;;;;;4991916;28;20023;-74
2023/03/18 02:20:05;;;;;;;25.15;3.72;;;;;;;;;;4990585;28;20149;-74
2023/03/18 02:22:32;;;;;;;14.75;4.18;;;;;;;;;;4991775;28;20061;-75
2023/03/18 02:24:58;;;;;;;14.07;4.50;;;;;;;;;;4991775;28;20022;-75
2023/03/18 02:27:25;;;;;;;13.15;4.00;;;;;;;;;;4991890;28;20026;-74
2023/03/18 02:29:56;;;;;;;16.38;4.43;;;;;;;;;;4991069;28;20036;-74
2023/03/18 02:32:25;;;;;;;16.23;4.57;;;;;;;;;;4991769;28;20133;-75
2023/03/18 02:34:51;;;;;;;18.23;4.80;;;;;;;;;;4991814;28;20549;-74
2023/03/18 02:37:17;;;;;;;17.25;6.30;;;;;;;;;;4991663;28;20019;-73
2023/03/18 02:39:43;;;;;;;25.13;5.65;;;;;;;;;;4991587;28;20036;-74
2023/03/18 02:42:13;;;;;;;17.25;5.78;;;;;;;;;;4991685;28;20043;-74
2023/03/18 02:44:41;;;;;;;19.30;5.60;;;;;;;;;;4991611;28;20034;-74
2023/03/18 02:47:11;;;;;;;15.95;4.93;;;;;;;;;;5013804;28;20034;-75
2023/03/18 02:49:37;;;;;;;15.05;4.90;;;;;;;;;;5015169;28;20028;-74
2023/03/18 02:52:03;;;;;;;16.48;4.50;;;;;;;;;;5015188;28;20045;-72
2023/03/18 02:54:30;;;;;;;16.38;4.53;;;;;;;;;;5015354;28;20026;-73
2023/03/18 02:56:57;;;;;;;17.77;3.88;;;;;;;;;;5015047;28;20083;-74
2023/03/18 02:59:24;;;;;;;14.60;3.45;;;;;;;;;;5014934;28;20490;-73
2023/03/18 03:01:51;;;;;;;20.45;3.80;;;;;;;;;;5001146;28;20039;-73
2023/03/18 03:04:18;;;;;;;13.80;4.18;;;;;;;;;;4995489;28;20031;-73
2023/03/18 03:06:45;;;;;;;14.35;3.05;;;;;;;;;;4995388;28;20028;-73
2023/03/18 03:09:12;;;;;;;14.20;3.53;;;;;;;;;;4995032;28;20030;-72
2023/03/18 03:11:39;;;;;;;16.25;3.88;;;;;;;;;;4995056;28;20113;-73
2023/03/18 03:14:06;;;;;;;11.27;4.22;;;;;;;;;;4995031;28;20034;-73
2023/03/18 03:16:32;;;;;;;21.60;5.68;;;;;;;;;;4994880;28;20092;-73
2023/03/18 03:18:58;;;;;;;18.45;3.63;;;;;;;;;;4995204;28;20110;-73
2023/03/18 03:21:24;;;;;;;13.88;3.17;;;;;;;;;;4994875;28;20027;-74
2023/03/18 03:23:51;;;;;;;20.33;3.80;;;;;;;;;;4994819;28;20113;-74
2023/03/18 03:26:18;;;;;;;16.38;4.05;;;;;;;;;;4994698;28;20033;-73
2023/03/18 03:28:44;;;;;;;11.63;3.47;;;;;;;;;;4994811;28;20027;-74
2023/03/18 03:31:10;;;;;;;15.23;3.97;;;;;;;;;;5008320;28;20062;-74
2023/03/18 03:33:40;;;;;;;17.88;3.67;;;;;;;;;;5014437;28;20018;-75
2023/03/18 03:36:16;;;;;;;11.65;3.50;;;;;;;;;;5014102;28;20026;-73
2023/03/18 03:38:42;;;;;;;13.13;3.55;;;;;;;;;;5014253;28;20033;-73
2023/03/18 03:41:10;;;;;;;19.48;3.63;;;;;;;;;;5014246;28;20490;-73
2023/03/18 03:43:37;;;;;;;13.60;3.17;;;;;;;;;;5014106;28;20137;-74
2023/03/18 03:46:03;;;;;;;10.73;3.00;;;;;;;;;;5012570;28;20026;-73
2023/03/18 03:48:30;;;;;;;13.85;2.97;;;;;;;;;;5002923;28;20030;-73
2023/03/18 03:50:56;;;;;;;14.43;3.97;;;;;;;;;;4994499;28;20515;-73
2023/03/18 03:53:23;;;;;;;11.00;3.67;;;;;;;;;;4994335;28;20033;-74
2023/03/18 03:55:50;;;;;;;12.40;3.30;;;;;;;;;;4994295;28;20057;-74
2023/03/18 03:58:16;;;;;;;19.02;3.15;;;;;;;;;;4993716;28;20022;-72
2023/03/18 04:00:42;;;;;;;14.45;3.50;;;;;;;;;;4994151;28;20022;-72
2023/03/18 04:03:08;;;;;;;15.50;3.00;;;;;;;;;;4998099;28;20107;-74
2023/03/18 04:05:34;;;;;;;11.38;3.53;;;;;;;;;;5013739;28;20018;-73
2023/03/18 04:08:00;;;;;;;19.73;3.83;;;;;;;;;;5013848;28;20068;-73
2023/03/18 04:10:27;;;;;;;14.40;3.30;;;;;;;;;;5013863;28;20018;-74
2023/03/18 04:12:53;;;;;;;12.05;3.33;;;;;;;;;;5013557;28;20160;-73
2023/03/18 04:15:21;;;;;;;20.13;3.83;;;;;;;;;;5013401;28;20018;-73
2023/03/18 04:17:48;;;;;;;13.50;2.92;;;;;;;;;;5013523;28;20026;-73
2023/03/18 04:20:15;;;;;;;17.02;3.40;;;;;;;;;;5031530;28;20031;-72
2023/03/18 04:22:42;;;;;;;17.90;3.55;;;;;;;;;;4993661;28;20054;-73
2023/03/18 04:25:09;;;;;;;16.42;2.85;;;;;;;;;;4993799;28;20029;-73
2023/03/18 04:27:36;;;;;;;15.40;3.50;;;;;;;;;;4994020;28;20031;-75
2023/03/18 04:30:02;;;;;;;18.15;4.38;;;;;;;;;;4993397;28;20073;-74
2023/03/18 04:32:29;;;;;;;17.40;3.10;;;;;;;;;;4993781;28;20037;-73
2023/03/18 04:34:55;;;;;;;14.50;3.53;;;;;;;;;;4993516;28;20114;-74
2023/03/18 04:37:21;;;;;;;17.90;4.22;;;;;;;;;;4993523;28;20030;-74
2023/03/18 04:39:47;;;;;;;16.75;3.42;;;;;;;;;;4992037;28;20081;-74
2023/03/18 04:42:14;;;;;;;11.45;3.33;;;;;;;;;;4993636;28;20088;-75
2023/03/18 04:44:40;;;;;;;15.02;3.38;;;;;;;;;;4993592;28;20030;-73
2023/03/18 04:47:06;;;;;;;11.93;3.63;;;;;;;;;;4993481;28;20080;-75
2023/03/18 04:49:33;;;;;;;15.23;2.95;;;;;;;;;;4993369;28;20072;-74
2023/03/18 04:51:59;;;;;;;16.25;4.07;;;;;;;;;;4993252;28;20072;-74
2023/03/18 04:54:26;;;;;;;9.45;3.95;;;;;;;;;;4991847;28;20534;-77
2023/03/18 04:56:52;;;;;;;19.30;4.00;;;;;;;;;;4993480;28;20026;-74
2023/03/18 04:59:18;;;;;;;18.83;3.92;;;;;;;;;;4993237;28;20026;-74
2023/03/18 05:01:44;;;;;;;15.43;3.47;;;;;;;;;;4993044;28;20034;-73
2023/03/18 05:04:10;;;;;;;11.18;3.45;;;;;;;;;;4993035;28;20027;-74
2023/03/18 05:06:37;;;;;;;14.85;4.03;;;;;;;;;;4993112;28;20018;-74
2023/03/18 05:09:07;;;;;;;12.80;3.30;;;;;;;;;;4992206;28;20105;-74
2023/03/18 05:11:33;;;;;;;11.75;3.20;;;;;;;;;;4992928;28;20019;-74
2023/03/18 05:14:00;;;;;;;13.93;4.43;;;;;;;;;;4993046;28;20026;-73
2023/03/18 05:16:26;;;;;;;18.70;3.92;;;;;;;;;;4992879;28;20023;-74
2023/03/18 05:18:52;;;;;;;15.57;4.28;;;;;;;;;;4992698;28;20030;-73
2023/03/18 05:21:18;;;;;;;14.80;3.78;;;;;;;;;;4991492;28;20058;-75
2023/03/18 05:23:45;;;;;;;8.70;3.17;;;;;;;;;;4991351;28;20503;-75
2023/03/18 05:26:11;;;;;;;11.93;3.30;;;;;;;;;;5003113;28;20046;-76
2023/03/18 05:28:38;;;;;;;10.52;3.70;;;;;;;;;;5012533;28;20022;-73
2023/03/18 05:31:04;;;;;;;16.45;3.42;;;;;;;;;;5012234;28;20030;-73
2023/03/18 05:33:31;;;;;;;11.07;3.50;;;;;;;;;;5012236;28;20097;-75
2023/03/18 05:35:57;;;;;;;12.48;3.40;;;;;;;;;;5011007;28;20030;-75
2023/03/18 05:38:24;;;;;;;16.38;3.70;;;;;;;;;;5012337;28;20745;-74
2023/03/18 05:40:50;;;;;;;15.30;3.80;;;;;;;;;;5012153;28;20025;-75
2023/03/18 05:43:16;;;;;;;15.73;3.53;;;;;;;;;;5001410;28;20122;-74
2023/03/18 05:45:42;;;;;;;9.10;3.53;;;;;;;;;;4992334;28;20018;-75
2023/03/18 05:48:09;;;;;;;10.48;3.65;;;;;;;;;;4992245;28;20114;-74
2023/03/18 05:50:38;;;;;;;14.80;3.92;;;;;;;;;;4992070;28;20471;-74
2023/03/18 05:53:04;;;;;;;12.98;3.10;;;;;;;;;;4992320;28;20061;-74
2023/03/18 05:55:31;;;;;;;12.70;3.58;;;;;;;;;;4992068;28;20027;-74
2023/03/18 05:57:57;;;;;;;21.42;4.05;;;;;;;;;;4992084;28;20153;-73
2023/03/18 06:00:24;;;;;;;14.82;3.83;;;;;;;;;;4991603;28;20058;-75
2023/03/18 06:02:53;;;;;;;9.50;3.92;;;;;;;;;;4992101;28;20042;-73
2023/03/18 06:05:20;;;;;;;15.48;4.22;;;;;;;;;;4990572;28;20019;-75
2023/03/18 06:07:46;;;;;;;10.73;3.55;;;;;;;;;;4992005;28;20026;-74
2023/03/18 06:10:12;;;;;;;9.98;4.57;;;;;;;;;;4992239;28;20041;-73
2023/03/18 06:12:40;;;;;;;8.85;4.22;;;;;;;;;;4991911;28;20034;-73
2023/03/18 06:15:07;;;;;;;11.48;4.57;;;;;;;;;;4991474;28;20034;-74
2023/03/18 06:17:34;;;;;;;12.45;4.40;;;;;;;;;;4991980;28;20127;-74
2023/03/18 06:20:00;;;;;;;12.10;4.20;;;;;;;;;;4991509;28;20053;-73
2023/03/18 06:22:26;;;;;;;12.57;4.70;;;;;;;;;;4991551;28;20384;-74
2023/03/18 06:24:53;;;;;;;10.55;4.57;;;;;;;;;;4991917;28;20085;-74
2023/03/18 06:27:19;;;;;;;15.63;6.35;;;;;;;;;;4991901;28;20428;-74
2023/03/18 06:29:45;;;;;;;13.88;5.40;;;;;;;;;;4991697;28;20019;-73
2023/03/18 06:32:11;;;;;;;11.88;4.80;;;;;;;;;;4991276;28;20568;-73
2023/03/18 06:34:37;;;;;;;9.57;5.05;;;;;;;;;;4991712;28;20034;-72
2023/03/18 06:37:04;;;;;;;21.25;4.97;;;;;;;;;;4991606;28;20019;-72
2023/03/18 06:39:30;;;;;;;12.07;4.03;;;;;;;;;;4991597;28;20027;-72
2023/03/18 06:41:56;;;;;;;11.60;3.45;;;;;;;;;;4991583;28;20076;-74
2023/03/18 06:44:23;;;;;;;14.98;3.10;;;;;;;;;;4991656;28;20502;-70
2023/03/18 06:46:49;;;;;;;18.25;3.97;;;;;;;;;;4989720;28;20097;-70
2023/03/18 06:49:15;;;;;;;19.55;3.15;;;;;;;;;;4991583;28;20034;-71
2023/03/18 06:51:42;;;;;;;21.20;3.22;;;;;;;;;;4990399;28;20026;-70
2023/03/18 06:54:08;;;;;;;18.98;3.65;;;;;;;;;;4991378;28;20109;-68
2023/03/18 06:56:40;;;;;;;20.98;4.55;;;;;;;;;;4991519;28;20027;-69
2023/03/18 06:59:06;;;;;;;19.23;4.68;;;;;;;;;;5007888;28;20029;-66
2023/03/18 07:01:33;;;;;;;25.38;4.32;;;;;;;;;;5010992;28;20088;-64
2023/03/18 07:03:59;;;;;;;19.08;3.78;;;;;;;;;;5009934;28;20026;-64
2023/03/18 07:06:26;;;;;;;18.25;4.68;;;;;;;;;;5008267;28;20387;-63
2023/03/18 07:08:53;;;;;;;27.88;4.65;;;;;;;;;;5010868;28;20119;-64
2023/03/18 07:11:20;;;;;;;13.68;5.13;;;;;;;;;;5010445;28;20053;-64
2023/03/18 07:13:47;;;;;;;16.95;5.80;;;;;;;;;;5010701;28;20018;-63
2023/03/18 07:16:13;;;;;;;22.55;8.43;;;;;;;;;;5010930;28;20041;-64
2023/03/18 07:18:39;;;;;;;18.65;6.03;;;;;;;;;;5010768;28;20033;-64
2023/03/18 07:21:06;;;;;;;18.58;7.15;;;;;;;;;;5010884;28;20032;-65
2023/03/18 07:23:33;;;;;;;20.77;6.90;;;;;;;;;;5010707;28;20050;-64
2023/03/18 07:25:59;;;;;;;19.60;7.25;;;;;;;;;;5009183;28;20044;-62
2023/03/18 07:28:25;;;;;;;20.85;8.20;;;;;;;;;;5010701;28;20125;-65
2023/03/18 07:30:51;;;;;;;18.40;7.68;;;;;;;;;;5010756;28;20367;-65
2023/03/18 07:33:17;;;;;;;25.45;8.52;;;;;;;;;;5013459;28;20022;-66
2023/03/18 07:35:43;;;;;;;15.60;7.25;;;;;;;;;;5014403;28;20031;-65
2023/03/18 07:38:10;;;;;;;21.70;7.40;;;;;;;;;;5014477;28;20418;-64
2023/03/18 07:40:36;;;;;;;18.17;7.43;;;;;;;;;;5014082;28;20156;-65
2023/03/18 07:43:03;;;;;;;23.45;7.60;;;;;;;;;;5013103;28;20034;-64
2023/03/18 07:45:29;;;;;;;18.80;7.00;;;;;;;;;;5014295;28;20022;-65
2023/03/18 07:47:55;;;;;;;21.38;7.78;;;;;;;;;;5014241;28;20026;-64
2023/03/18 07:50:21;;;;;;;24.02;6.93;;;;;;;;;;5012995;28;20022;-64
2023/03/18 07:52:47;;;;;;;24.23;6.72;;;;;;;;;;5013533;28;20034;-64
2023/03/18 07:55:14;;;;;;;14.73;6.72;;;;;;;;;;5013507;28;20033;-63
2023/03/18 07:57:40;;;;;;;13.57;6.00;;;;;;;;;;5013894;28;20033;-62
2023/03/18 08:00:07;;;;;;;25.05;6.63;;;;;;;;;;5012794;28;20084;-63
2023/03/18 08:02:35;;;;;;;21.25;7.07;;;;;;;;;;5013503;28;20033;-62
2023/03/18 08:05:02;;;;;;;15.13;5.90;;;;;;;;;;5013686;28;20652;-63
2023/03/18 08:07:28;;;;;;;17.98;6.95;;;;;;;;;;5012187;28;20057;-62
2023/03/18 08:09:54;;;;;;;16.15;6.75;;;;;;;;;;5003094;28;20412;-62
2023/03/18 08:12:21;;;;;;;13.63;5.45;;;;;;;;;;5011546;28;20022;-62
2023/03/18 08:14:47;;;;;;;16.15;5.45;;;;;;;;;;5011622;28;20041;-62
2023/03/18 08:17:13;;;;;;;14.88;5.32;;;;;;;;;;5013521;28;20018;-62
2023/03/18 08:19:40;;;;;;;15.15;4.35;;;;;;;;;;5013526;28;20513;-65
2023/03/18 08:22:07;;;;;;;10.02;4.38;;;;;;;;;;5012951;28;20054;-62
2023/03/18 08:24:34;;;;;;;10.32;4.38;;;;;;;;;;5010102;28;20046;-63
2023/03/18 08:27:00;;;;;;;10.82;4.60;;;;;;;;;;5012611;28;20069;-62
2023/03/18 08:29:26;;;;;;;10.55;5.50;;;;;;;;;;5013289;28;20026;-62
2023/03/18 08:31:53;;;;;;;11.82;5.82;;;;;;;;;;5012042;28;20030;-62
2023/03/18 08:34:19;;;;;;;11.93;5.90;;;;;;;;;;5012981;28;20064;-62
2023/03/18 08:36:45;;;;;;;13.40;5.68;;;;;;;;;;5013022;28;20018;-61
2023/03/18 08:39:11;;;;;;;12.45;6.00;;;;;;;;;;5012881;28;20033;-62
2023/03/18 08:41:37;;;;;;;12.77;5.95;;;;;;;;;;5010863;28;20057;-63
2023/03/18 08:44:06;;;;;;;15.40;6.32;;;;;;;;;;4993201;28;20438;-63
2023/03/18 08:46:32;;;;;;;12.70;5.88;;;;;;;;;;4993429;28;20033;-61
2023/03/18 08:48:59;;;;;;;16.00;6.15;;;;;;;;;;5010719;28;20496;-62
2023/03/18 08:51:25;;;;;;;10.95;5.63;;;;;;;;;;5011742;28;20022;-62
2023/03/18 08:53:51;;;;;;;14.73;5.82;;;;;;;;;;5011485;28;20095;-63
2023/03/18 08:56:18;;;;;;;10.25;4.82;;;;;;;;;;5012042;28;20037;-63
2023/03/18 08:58:44;;;;;;;16.98;5.15;;;;;;;;;;5011421;28;20018;-62
2023/03/18 09:01:11;;;;;;;19.63;4.70;;;;;;;;;;5010299;28;20053;-63
2023/03/18 09:03:37;;;;;;;15.20;5.45;;;;;;;;;;5011329;28;20038;-63
2023/03/18 09:06:03;;;;;;;14.52;4.13;;;;;;;;;;5010955;28;20032;-63
2023/03/18 09:08:31;;;;;;;15.85;4.30;;;;;;;;;;5012144;28;20089;-63
2023/03/18 09:10:57;;;;;;;18.08;4.70;;;;;;;;;;5009945;28;20157;-64
2023/03/18 09:13:24;;;;;;;17.92;4.55;;;;;;;;;;5011406;28;20080;-63
2023/03/18 09:15:50;;;;;;;15.95;3.50;;;;;;;;;;5010951;28;20168;-63
2023/03/18 09:18:17;;;;;;;25.25;4.03;;;;;;;;;;5009627;28;20026;-63
2023/03/18 09:20:44;;;;;;;19.63;3.70;;;;;;;;;;5011546;28;20018;-63
2023/03/18 09:23:11;;;;;;;19.20;3.75;;;;;;;;;;5011829;28;20089;-62
2023/03/18 09:25:37;;;;;;;19.92;3.53;;;;;;;;;;5011866;28;20022;-64
2023/03/18 09:28:03;;;;;;;16.73;3.05;;;;;;;;;;5010812;28;20108;-63
2023/03/18 09:30:30;;;;;;;21.30;3.47;;;;;;;;;;5011541;28;20049;-64
2023/03/18 09:32:56;;;;;;;22.75;3.22;;;;;;;;;;5010633;28;20018;-65
2023/03/18 09:35:23;;;;;;;16.27;3.30;;;;;;;;;;5011085;28;20018;-64
2023/03/18 09:37:49;;;;;;;19.38;3.17;;;;;;;;;;5011541;28;20053;-64
2023/03/18 09:40:23;;;;;;;20.30;3.05;;;;;;;;;;5011181;28;20018;-64
2023/03/18 09:42:57;;;;;;;18.88;2.92;;;;;;;;;;5011647;28;20207;-64
2023/03/18 09:45:36;;;;;;;24.23;3.03;;;;;;;;;;5009298;28;20124;-65
2023/03/18 09:48:15;;;;;;;17.58;2.78;;;;;;;;;;5009845;28;20033;-66
2023/03/18 09:50:45;;;;;;;14.20;3.05;;;;;;;;;;5008312;28;20024;-68
2023/03/18 09:53:14;;;;;;;18.65;2.80;;;;;;;;;;5005171;28;20030;-68
2023/03/18 09:55:40;;;;;;;13.27;2.08;;;;;;;;;;5009895;28;20076;-68
2023/03/18 09:58:15;;;;;;;20.17;2.80;;;;;;;;;;5010359;28;20030;-68
2023/03/18 10:03:27;;;;;;;23.95;2.97;;;;;;;;;;5008634;28;20105;-69
2023/03/18 10:05:56;;;;;;;13.20;2.88;;;;;;;;;;5010645;28;20034;-69
2023/03/18 10:08:25;;;;;;;11.73;2.10;;;;;;;;;;5011557;28;20411;-68
2023/03/18 10:10:51;;;;;;;13.00;2.22;;;;;;;;;;5011195;28;20033;-69
2023/03/18 10:13:33;;;;;;;11.27;2.15;;;;;;;;;;5011885;28;20084;-69
2023/03/18 10:16:02;;;;;;;16.42;2.13;;;;;;;;;;5009084;28;20025;-68
2023/03/18 10:18:33;;;;;;;13.32;2.17;;;;;;;;;;5007561;28;20060;-67
2023/03/18 10:21:14;;;;;;;15.32;2.38;;;;;;;;;;5009759;28;20033;-64
2023/03/18 10:23:48;;;;;;;17.57;2.73;;;;;;;;;;5009509;28;20037;-69
2023/03/18 10:26:16;;;;;;;16.40;3.90;;;;;;;;;;5011464;28;20037;-64
2023/03/18 10:28:57;;;;;;;10.27;1.80;;;;;;;;;;5011299;28;20064;-66
2023/03/18 10:31:36;;;;;;;13.93;2.08;;;;;;;;;;5010313;28;20018;-64
2023/03/18 10:34:05;;;;;;;23.52;2.30;;;;;;;;;;5010904;28;20014;-69
2023/03/18 10:36:34;;;;;;;18.65;2.85;;;;;;;;;;4992621;28;20030;-68
2023/03/18 10:39:02;;;;;;;10.82;1.77;;;;;;;;;;5008258;28;20022;-66
2023/03/18 10:41:33;;;;;;;14.57;1.85;;;;;;;;;;5011366;28;20606;-66
2023/03/18 10:44:01;;;;;;;9.10;1.45;;;;;;;;;;5010227;28;20049;-68
2023/03/18 10:46:27;;;;;;;13.52;1.98;;;;;;;;;;5009400;28;20843;-66
2023/03/18 10:49:01;;;;;;;11.70;2.00;;;;;;;;;;5011122;28;20485;-64
2023/03/18 10:51:34;;;;;;;11.95;1.67;;;;;;;;;;5004680;28;20137;-64
2023/03/18 10:54:12;;;;;;;9.10;1.52;;;;;;;;;;5001588;28;20029;-62
2023/03/18 10:56:38;;;;;;;11.25;1.95;;;;;;;;;;4999170;28;20060;-62
2023/03/18 10:59:10;;;;;;;14.65;1.85;;;;;;;;;;4999054;28;20022;-63
2023/03/18 11:01:36;;;;;;;;;;;;;;;;;;4999650;28;20052;-64
2023/03/18 11:04:08;;;;;;;8.85;1.83;;;;;;;;;;4999243;28;20000;-62
2023/03/18 11:06:40;;;;;;;7.72;1.50;;;;;;;;;;5003408;28;20103;-65
2023/03/18 11:09:08;;;;;;;11.07;2.20;;;;;;;;;;5013179;28;20017;-64
2023/03/18 11:11:35;;;;;;;12.85;1.90;;;;;;;;;;5014494;28;20025;-64
2023/03/18 11:14:05;;;;;;;16.33;1.58;;;;;;;;;;5014436;28;20030;-65
2023/03/18 11:16:34;;;;;;;17.05;1.92;;;;;;;;;;5014349;28;20494;-65
2023/03/18 11:19:06;;;;;;;13.10;1.85;;;;;;;;;;5000973;28;20034;-65
2023/03/18 11:21:36;;;;;;;10.75;2.45;;;;;;;;;;4998497;28;20022;-65
2023/03/18 11:24:19;;;;;;;13.60;2.08;;;;;;;;;;5014782;28;20141;-66
2023/03/18 11:26:53;;;;;;;9.02;1.83;;;;;;;;;;5013580;28;20018;-68
2023/03/18 11:29:23;;;;;;;14.68;2.08;;;;;;;;;;5011398;28;20538;-67
2023/03/18 11:31:50;;;;;;;15.70;2.00;;;;;;;;;;5011862;28;20091;-67
2023/03/18 11:34:21;;;;;;;9.05;1.77;;;;;;;;;;4995330;28;20092;-68
2023/03/18 11:36:59;;;;;;;13.65;2.00;;;;;;;;;;4999531;28;20018;-63
2023/03/18 11:39:27;;;;;;;6.32;2.30;;;;;;;;;;5013065;28;20034;-68
2023/03/18 11:41:54;;;;;;;15.40;2.03;;;;;;;;;;5013286;28;20437;-67
2023/03/18 11:44:25;;;;;;;9.80;2.03;;;;;;;;;;5013278;28;20033;-67
2023/03/18 11:46:57;;;;;;;11.40;1.67;;;;;;;;;;5014002;28;20057;-67
2023/03/18 11:49:25;;;;;;;7.25;1.35;;;;;;;;;;5013888;28;20037;-68
2023/03/18 11:51:52;;;;;;;12.30;1.40;;;;;;;;;;5014259;28;20030;-65
2023/03/18 11:54:23;;;;;;;8.18;1.65;;;;;;;;;;5012783;28;20034;-65
2023/03/18 11:56:57;;;;;;;16.33;2.00;;;;;;;;;;5013046;28;20033;-67
2023/03/18 11:59:40;;;;;;;8.25;1.60;;;;;;;;;;5013873;28;20041;-67
2023/03/18 12:02:21;;;;;;;12.40;2.10;;;;;;;;;;5012803;28;20070;-67
2023/03/18 12:04:56;;;;;;;11.67;2.07;;;;;;;;;;5013745;28;20482;-67
2023/03/18 12:07:41;;;;;;;10.30;2.10;;;;;;;;;;5012114;28;20569;-68
2023/03/18 12:10:27;;;;;;;17.92;2.38;;;;;;;;;;5013670;28;20482;-66
2023/03/18 12:13:18;;;;;;;10.07;2.33;;;;;;;;;;5014004;28;20572;-66
2023/03/18 12:15:54;;;;;;;10.70;2.15;;;;;;;;;;5013677;28;20471;-68
2023/03/18 12:18:26;;;;;;;12.70;2.40;;;;;;;;;;5012329;28;20509;-66
2023/03/18 12:20:53;;;;;;;8.10;2.25;;;;;;;;;;5021507;28;20025;-67
2023/03/18 12:23:32;;;;;;;8.25;2.00;;;;;;;;;;5012385;28;20125;-67
2023/03/18 12:26:11;;;;;;;7.55;1.65;;;;;;;;;;5013375;28;20030;-67
2023/03/18 12:28:41;;;;;;;13.70;2.00;;;;;;;;;;5013482;28;20119;-67
2023/03/18 12:31:08;;;;;;;7.93;1.70;;;;;;;;;;5006403;28;20025;-69
2023/03/18 12:33:49;;;;;;;6.25;1.58;;;;;;;;;;4996657;28;20481;-66
2023/03/18 12:36:34;;;;;;;6.05;1.50;;;;;;;;;;5013284;28;20028;-67
2023/03/18 12:39:04;;;;;;;4.82;1.40;;;;;;;;;;5013041;28;20037;-67
2023/03/18 12:41:48;;;;;;;11.00;1.85;;;;;;;;;;5013173;28;20018;-68
2023/03/18 12:44:33;;;;;;;25.40;2.63;;;;;;;;;;5013072;28;20056;-67
2023/03/18 12:47:05;;;;;;;8.55;1.63;;;;;;;;;;5012806;28;20038;-68
2023/03/18 12:49:34;;;;;;;9.48;2.05;;;;;;;;;;5012048;28;20092;-68
2023/03/18 12:52:03;;;;;;;6.65;2.20;;;;;;;;;;5011888;28;20030;-68
2023/03/18 12:54:49;;;;;;;7.00;1.92;;;;;;;;;;5009649;28;20033;-67
2023/03/18 12:57:36;;;;;;;4.78;2.20;;;;;;;;;;5011028;28;20117;-67
2023/03/18 13:00:09;;;;;;;8.52;2.47;;;;;;;;;;5010731;28;20456;-68
2023/03/18 13:02:42;;;;;;;12.10;2.97;;;;;;;;;;5010807;28;20125;-68
2023/03/18 13:05:23;;;;;;;7.95;2.65;;;;;;;;;;5011050;28;20116;-68
2023/03/18 13:08:09;;;;;;;6.25;2.53;;;;;;;;;;5009520;28;20034;-68
2023/03/18 13:10:36;;;;;;;7.93;2.70;;;;;;;;;;5012605;28;20101;-67
2023/03/18 13:13:06;;;;;;;8.80;2.60;;;;;;;;;;5011285;28;20112;-68
2023/03/18 13:15:34;;;;;;;11.07;2.95;;;;;;;;;;5012368;28;20032;-67
2023/03/18 13:18:05;;;;;;;11.38;3.20;;;;;;;;;;5012890;28;20383;-67
2023/03/18 13:20:38;;;;;;;12.43;3.15;;;;;;;;;;5012266;28;20455;-68
2023/03/18 13:23:08;;;;;;;12.75;3.08;;;;;;;;;;5011346;28;20490;-67
2023/03/18 13:25:34;;;;;;;9.68;3.08;;;;;;;;;;5012474;28;20042;-67
2023/03/18 13:28:00;;;;;;;9.35;3.10;;;;;;;;;;5012399;28;20026;-68
2023/03/18 13:30:46;;;;;;;12.38;2.90;;;;;;;;;;5011312;28;20022;-68
2023/03/18 13:33:12;;;;;;;9.52;3.40;;;;;;;;;;5012356;28;20022;-68
2023/03/18 13:35:38;;;;;;;14.05;3.78;;;;;;;;;;5012276;28;20088;-68
2023/03/18 13:38:04;;;;;;;10.05;4.03;;;;;;;;;;5009845;28;20478;-68
2023/03/18 13:40:49;;;;;;;11.43;4.03;;;;;;;;;;5012094;28;20037;-68
2023/03/18 13:43:17;;;;;;;13.18;3.90;;;;;;;;;;5011857;28;20038;-68
2023/03/18 13:45:47;;;;;;;15.95;3.67;;;;;;;;;;5010569;28;20037;-67
2023/03/18 13:48:17;;;;;;;13.85;3.63;;;;;;;;;;5010867;28;20030;-69
2023/03/18 13:50:44;;;;;;;11.23;3.17;;;;;;;;;;5011920;28;20521;-68
2023/03/18 13:53:30;;;;;;;10.82;3.40;;;;;;;;;;5011912;28;20025;-69
2023/03/18 13:55:59;;;;;;;10.38;3.20;;;;;;;;;;5011863;28;20068;-67
2023/03/18 13:58:29;;;;;;;8.05;3.20;;;;;;;;;;5010492;28;20434;-68
2023/03/18 14:00:55;;;;;;;22.27;3.88;;;;;;;;;;5011836;28;20030;-68
2023/03/18 14:03:50;;;;;;;12.20;3.90;;;;;;;;;;5012084;28;20056;-68
2023/03/18 14:06:25;;;;;;;14.85;3.88;;;;;;;;;;5011845;28;20029;-68
2023/03/18 14:08:52;;;;;;;6.40;2.78;;;;;;;;;;5011617;28;20064;-68
2023/03/18 14:11:19;;;;;;;15.13;3.10;;;;;;;;;;5011553;28;20109;-68
2023/03/18 14:13:50;;;;;;;15.30;2.83;;;;;;;;;;5010573;28;20022;-69
2023/03/18 14:16:19;;;;;;;7.93;2.13;;;;;;;;;;5011583;28;20075;-69
2023/03/18 14:18:52;;;;;;;11.25;2.28;;;;;;;;;;5011614;28;20482;-69
2023/03/18 14:21:24;;;;;;;10.80;2.95;;;;;;;;;;5011673;28;20026;-68
2023/03/18 14:24:09;;;;;;;7.45;2.20;;;;;;;;;;5011300;28;20037;-68
2023/03/18 14:26:36;;;;;;;15.48;2.63;;;;;;;;;;5010711;28;20113;-67
2023/03/18 14:29:05;;;;;;;14.63;2.42;;;;;;;;;;5011584;28;20459;-67
2023/03/18 14:31:37;;;;;;;12.60;2.75;;;;;;;;;;5011420;28;20065;-66
2023/03/18 14:34:15;;;;;;;15.00;2.05;;;;;;;;;;5011385;28;20026;-66
2023/03/18 14:36:47;;;;;;;9.00;1.73;;;;;;;;;;5011280;28;20029;-66
2023/03/18 14:39:13;;;;;;;;;;;;;;;;;;5011564;28;20030;-67
2023/03/18 14:41:44;;;;;;;6.10;1.42;;;;;;;;;;5013245;28;19913;-67
2023/03/18 14:44:20;;;;;;;8.65;1.73;;;;;;;;;;5014484;28;20061;-67
2023/03/18 14:46:48;;;;;;;8.95;1.65;;;;;;;;;;5003776;28;20037;-66